Skip to main content

NOAA/GLERL Met Station at Muskegon, MI

Previous 5 days (top of hour only)
See also Previous 3 Hours (2 minute increments)
Jump down to Data
Switch to [English][Metric]
Zoom: Click and drag, Pan: shift-click and drag, Unzoom: double-click, Unzoom All






Note: Speed = mean wind during 2-minute period at top of hour,
Gust = max wind during 2-minute period at top of hour,
Peak = max wind during entire hour.
• See also 5-day windrose plot


NOAA/GLERL Met Station at Muskegon, MI

Previous 5 days (top of hour only)
See also Previous 3 Hours (2 minute increments)
Jump up to Graphs
Switch to [English][Metric]
                  Wind  Wind  Wind   Air   Dew   Rel     Sta   PAR
                   Spd   Gst   Dir  Temp    Pt   Hum    Pres uE/m2/
YYYY-MM-DD   EDT   kts   kts   deg     F     F     %   in Hg   sec
2023-10-03 02:00 -99.0 -99.0   -99  65.1  60.2  84.0   29.51     2
2023-10-03 01:00 -99.0 -99.0   -99  65.1  60.7  85.5   29.51     2
2023-10-03 00:00 -99.0 -99.0   -99  65.1  61.4  87.6   29.52     2
2023-10-02 23:00 -99.0 -99.0   -99  66.6  61.1  82.4   29.52     2
2023-10-02 22:00 -99.0 -99.0   -99  66.7  59.7  77.8   29.52     2
2023-10-02 21:00 -99.0 -99.0   -99  66.0  60.7  82.6   29.53     2
2023-10-02 20:00 -99.0 -99.0   -99  69.1  60.5  73.7   29.53     2
2023-10-02 19:00 -99.0 -99.0   -99  70.3  63.1  77.6   29.54   324
2023-10-02 18:00 -99.0 -99.0   -99  70.5  65.0  82.4   29.55   825
2023-10-02 17:00 -99.0 -99.0   -99  72.3  65.5  78.8   29.55  1349
2023-10-02 16:00 -99.0 -99.0   -99  72.0  64.9  78.1   29.57   898
2023-10-02 15:00 -99.0 -99.0   -99  71.8  64.6  77.7   29.58  1530
2023-10-02 14:00 -99.0 -99.0   -99  71.4  63.3  75.1   29.60  1566
2023-10-02 13:00 -99.0 -99.0   -99  70.9  63.4  76.8   29.61  1566
2023-10-02 12:00 -99.0 -99.0   -99  69.4  62.5  78.2   29.62  1528
2023-10-02 11:00 -99.0 -99.0   -99  68.5  62.2  79.8   29.62  1433
2023-10-02 10:00 -99.0 -99.0   -99  66.9  62.0  84.0   29.62  1257
2023-10-02 09:00 -99.0 -99.0   -99  67.3  60.6  78.8   29.62   872
2023-10-02 08:00 -99.0 -99.0   -99  63.5  59.9  87.8   29.62    65
2023-10-02 07:00 -99.0 -99.0   -99  64.2  59.0  83.0   29.61     2
2023-10-02 06:00 -99.0 -99.0   -99  66.0  60.9  83.3   29.61     2
2023-10-02 05:00 -99.0 -99.0   -99  66.2  59.1  77.6   29.61     2
2023-10-02 04:00 -99.0 -99.0   -99  63.9  59.2  84.5   29.61     2
2023-10-02 03:00 -99.0 -99.0   -99  64.4  59.9  85.1   29.62     2
2023-10-02 02:00 -99.0 -99.0   -99  64.0  60.8  89.2   29.62     2
2023-10-02 01:00 -99.0 -99.0   -99  64.4  61.3  89.5   29.62     2
2023-10-02 00:00 -99.0 -99.0   -99  65.1  61.9  89.1   29.62     2
2023-10-01 23:00 -99.0 -99.0   -99  64.8  61.4  88.7   29.62     2
2023-10-01 22:00 -99.0 -99.0   -99  65.1  60.4  84.6   29.61     2
2023-10-01 21:00 -99.0 -99.0   -99  66.9  59.2  76.0   29.61     2
2023-10-01 20:00 -99.0 -99.0   -99  68.2  59.2  72.6   29.62     2
2023-10-01 19:00 -99.0 -99.0   -99  73.4  59.0  60.2   29.61   302
2023-10-01 18:00 -99.0 -99.0   -99  72.0  61.3  68.6   29.62  1005
2023-10-01 17:00 -99.0 -99.0   -99  71.4  62.1  72.1   29.64  1304
2023-10-01 16:00 -99.0 -99.0   -99  70.2  63.9  80.2   29.65   860
2023-10-01 15:00 -99.0 -99.0   -99  69.4  63.4  80.8   29.67  1592
2023-10-01 14:00 -99.0 -99.0   -99  71.4  62.7  73.5   29.68  1636
2023-10-01 13:00 -99.0 -99.0   -99  71.6  61.0  68.9   29.70  1678
2023-10-01 12:00 -99.0 -99.0   -99  70.2  60.1  70.1   29.70  1539
2023-10-01 11:00 -99.0 -99.0   -99  68.2  59.3  72.8   29.70  1049
2023-10-01 10:00 -99.0 -99.0   -99  67.1  58.5  73.5   29.70   936
2023-10-01 09:00 -99.0 -99.0   -99  63.0  57.8  83.1   29.70   264
2023-10-01 08:00 -99.0 -99.0   -99  62.2  58.4  87.2   29.68    56
2023-10-01 07:00 -99.0 -99.0   -99  64.9  60.0  83.7   29.68     2
2023-10-01 06:00 -99.0 -99.0   -99  64.4  58.2  80.0   29.66     2
2023-10-01 05:00 -99.0 -99.0   -99  64.9  58.4  79.2   29.64     2
2023-10-01 04:00 -99.0 -99.0   -99  65.1  58.9  80.1   29.64     2
2023-10-01 03:00 -99.0 -99.0   -99  66.2  58.7  76.4   29.64     2
2023-10-01 02:00 -99.0 -99.0   -99  66.2  59.3  78.2   29.63     2
2023-10-01 01:00 -99.0 -99.0   -99  66.9  60.9  80.6   29.62     2
2023-10-01 00:00 -99.0 -99.0   -99  66.2  62.8  88.6   29.62     2
2023-09-30 23:00 -99.0 -99.0   -99  66.2  61.6  84.9   29.61     2
2023-09-30 22:00 -99.0 -99.0   -99  67.1  61.7  82.6   29.61     2
2023-09-30 21:00 -99.0 -99.0   -99  68.0  60.8  77.5   29.61     2
2023-09-30 20:00 -99.0 -99.0   -99  67.8  61.4  79.5   29.58     2
2023-09-30 19:00 -99.0 -99.0   -99  67.6  63.6  86.7   29.57    98
2023-09-30 18:00 -99.0 -99.0   -99  70.7  64.0  79.0   29.57  1034
2023-09-30 17:00 -99.0 -99.0   -99  70.5  64.1  79.9   29.57  1337
2023-09-30 16:00 -99.0 -99.0   -99  70.0  63.2  78.9   29.60   810
2023-09-30 15:00 -99.0 -99.0   -99  68.9  63.1  81.5   29.63  1525
2023-09-30 14:00 -99.0 -99.0   -99  70.5  63.1  76.9   29.64  1566
2023-09-30 13:00 -99.0 -99.0   -99  67.8  61.5  79.8   29.62  1579
2023-09-30 12:00 -99.0 -99.0   -99  67.3  60.8  79.5   29.65  1508
2023-09-30 11:00 -99.0 -99.0   -99  65.3  60.5  84.2   29.65  1384
2023-09-30 10:00 -99.0 -99.0   -99  63.1  58.5  84.7   29.62  1185
2023-09-30 09:00 -99.0 -99.0   -99  61.2  57.4  87.2   29.59   750
2023-09-30 08:00 -99.0 -99.0   -99  56.8  55.8  96.2   29.60    67
2023-09-30 07:00 -99.0 -99.0   -99  56.1  54.8  95.3   29.58     2
2023-09-30 06:00 -99.0 -99.0   -99  57.0  55.5  94.6   29.57     2
2023-09-30 05:00 -99.0 -99.0   -99  57.4  55.5  93.3   29.57     2
2023-09-30 04:00 -99.0 -99.0   -99  57.9  55.8  92.6   29.55     2
2023-09-30 03:00 -99.0 -99.0   -99  58.6  55.8  90.1   29.54     2
2023-09-30 02:00 -99.0 -99.0   -99  58.8  55.9  90.0   29.54     2
2023-09-30 01:00 -99.0 -99.0   -99  59.4  56.0  88.6   29.54     2
2023-09-30 00:00 -99.0 -99.0   -99  59.4  55.9  88.3   29.55     2
2023-09-29 23:00 -99.0 -99.0   -99  59.5  55.6  86.6   29.53     2
2023-09-29 22:00 -99.0 -99.0   -99  60.3  55.7  84.7   29.53     2
2023-09-29 21:00 -99.0 -99.0   -99  61.7  56.1  81.5   29.55     2
2023-09-29 20:00 -99.0 -99.0   -99  62.8  56.8  80.7   29.55     2
2023-09-29 19:00 -99.0 -99.0   -99  64.8  55.9  72.6   29.54   226
2023-09-29 18:00 -99.0 -99.0   -99  66.6  56.8  70.5   29.53   837
2023-09-29 17:00 -99.0 -99.0   -99  66.4  57.3  72.2   29.53   284
2023-09-29 16:00 -99.0 -99.0   -99  67.6  59.1  73.8   29.52   637
2023-09-29 15:00 -99.0 -99.0   -99  66.9  58.4  73.7   29.52   873
2023-09-29 14:00 -99.0 -99.0   -99  66.6  58.5  74.9   29.52   873
2023-09-29 13:00 -99.0 -99.0   -99  65.7  58.2  76.5   29.54   784
2023-09-29 12:00 -99.0 -99.0   -99  65.3  56.1  71.9   29.53   572
2023-09-29 11:00 -99.0 -99.0   -99  64.4  56.0  73.8   29.54  1524
2023-09-29 10:00 -99.0 -99.0   -99  62.8  56.4  79.4   29.55   655
2023-09-29 09:00 -99.0 -99.0   -99  61.2  56.6  84.9   29.54   930
2023-09-29 08:00 -99.0 -99.0   -99  58.3  55.8  91.5   29.52    62
2023-09-29 07:00 -99.0 -99.0   -99  59.0  56.4  91.1   29.51     2
2023-09-29 06:00 -99.0 -99.0   -99  59.4  55.8  87.8   29.51     2
2023-09-29 05:00 -99.0 -99.0   -99  58.6  55.4  88.9   29.49     2
2023-09-29 04:00 -99.0 -99.0   -99  58.6  55.6  89.6   29.49     2
2023-09-29 03:00 -99.0 -99.0   -99  58.3  55.0  88.7   29.49     2
2023-09-29 02:00 -99.0 -99.0   -99  58.6  55.2  88.1   29.48     2
2023-09-29 01:00 -99.0 -99.0   -99  60.3  55.4  83.9   29.48     2
2023-09-29 00:00 -99.0 -99.0   -99  61.0  55.1  80.7   29.49     2
2023-09-28 23:00 -99.0 -99.0   -99  62.2  55.4  78.0   29.48     2
2023-09-28 22:00 -99.0 -99.0   -99  64.2  56.0  74.2   29.48     2
2023-09-28 21:00 -99.0 -99.0   -99  64.8  57.6  77.3   29.47     2
2023-09-28 20:00 -99.0 -99.0   -99  65.5  57.2  74.3   29.47     2